Time;durP1;ratioP1;P1;durP2;ratioP2;P2;SDS_P1;SDS_P2;PMS_P1;PMS_P2;Temp;Humidity;BMP_temperature;BMP_pressure;BME280_temperature;BME280_humidity;BME280_pressure;Samples;Min_cycle;Max_cycle;Signal;HPM_P1;HPM_P2
2022/10/07 00:00:19;;;;;;;2.13;2.03;;;11.20;81.30;;;;;;5052423;28;20222;-76
2022/10/07 00:02:44;;;;;;;2.22;2.13;;;11.20;82.00;;;;;;5060739;28;20190;-76
2022/10/07 00:05:10;;;;;;;2.80;1.98;;;11.20;81.60;;;;;;5054898;28;20220;-76
2022/10/07 00:07:36;;;;;;;2.45;1.98;;;11.10;81.00;;;;;;5052920;28;20195;-75
2022/10/07 00:10:02;;;;;;;1.55;1.55;;;11.10;81.70;;;;;;5053391;28;20186;-75
2022/10/07 00:12:28;;;;;;;1.88;1.75;;;11.10;81.80;;;;;;5054407;28;20186;-75
2022/10/07 00:14:54;;;;;;;1.90;1.80;;;11.10;81.90;;;;;;5054928;28;20176;-76
2022/10/07 00:17:19;;;;;;;2.83;1.92;;;11.10;81.30;;;;;;5052646;28;20179;-75
2022/10/07 00:19:46;;;;;;;1.73;1.63;;;11.10;81.50;;;;;;5051990;28;20301;-78
2022/10/07 00:22:11;;;;;;;2.13;2.03;;;11.10;81.60;;;;;;5049770;28;20205;-75
2022/10/07 00:24:37;;;;;;;1.35;1.35;;;11.00;80.80;;;;;;5053143;28;20258;-76
2022/10/07 00:27:03;;;;;;;2.00;1.77;;;11.00;81.60;;;;;;5051440;28;20941;-76
2022/10/07 00:29:29;;;;;;;2.05;1.85;;;11.00;81.80;;;;;;5049029;28;20183;-76
2022/10/07 00:31:54;;;;;;;1.93;1.83;;;11.00;81.70;;;;;;5058173;28;20183;-76
2022/10/07 00:34:20;;;;;;;1.92;1.73;;;10.90;81.50;;;;;;5057841;28;20184;-78
2022/10/07 00:36:49;;;;;;;2.25;2.13;;;10.90;81.70;;;;;;5057829;28;20191;-76
2022/10/07 00:39:15;;;;;;;1.58;1.58;;;10.90;80.80;;;;;;5058743;28;20218;-78
2022/10/07 00:41:45;;;;;;;1.63;1.58;;;10.90;80.50;;;;;;5061119;28;20301;-77
2022/10/07 00:44:36;;;;;;;2.55;1.60;;;10.90;80.80;;;;;;5064248;28;20195;-75
2022/10/07 00:47:11;;;;;;;1.17;1.17;;;10.90;81.00;;;;;;5062918;28;20205;-76
2022/10/07 00:49:43;;;;;;;1.27;1.27;;;10.90;81.20;;;;;;5062184;28;20200;-75
2022/10/07 00:52:10;;;;;;;1.52;1.42;;;10.90;80.70;;;;;;5048585;28;20190;-74
2022/10/07 00:54:37;;;;;;;0.98;0.98;;;10.90;81.50;;;;;;5048584;28;20317;-76
2022/10/07 00:57:03;;;;;;;1.80;1.70;;;10.90;81.50;;;;;;5048658;28;20634;-75
2022/10/07 00:59:28;;;;;;;1.38;1.38;;;10.80;81.20;;;;;;5055781;28;20211;-76
2022/10/07 01:01:54;;;;;;;1.80;1.70;;;10.80;80.30;;;;;;5067264;28;20270;-76
2022/10/07 01:04:20;;;;;;;1.20;1.10;;;10.80;80.50;;;;;;5068020;28;20181;-75
2022/10/07 01:06:45;;;;;;;1.75;1.65;;;10.80;81.20;;;;;;5063056;28;20190;-76
2022/10/07 01:09:12;;;;;;;2.58;1.40;;;10.80;80.90;;;;;;5064110;28;20186;-76
2022/10/07 01:12:18;;;;;;;2.35;1.30;;;10.80;80.70;;;;;;5075037;28;20286;-76
2022/10/07 01:14:46;;;;;;;5.10;1.07;;;10.80;80.50;;;;;;5033128;28;20751;-77
2022/10/07 01:17:26;;;;;;;2.53;1.37;;;10.70;80.80;;;;;;5041843;28;20279;-77
2022/10/07 01:20:00;;;;;;;1.70;1.60;;;10.70;80.20;;;;;;5046765;28;20211;-77
2022/10/07 01:22:48;;;;;;;1.60;1.53;;;10.70;81.10;;;;;;5046347;28;20206;-76
2022/10/07 01:25:45;;;;;;;3.83;1.85;;;10.70;81.10;;;;;;5039514;28;20200;-77
2022/10/07 01:28:25;;;;;;;2.60;1.85;;;10.70;80.80;;;;;;5028477;28;20192;-76
2022/10/07 01:30:55;;;;;;;2.08;1.83;;;10.60;81.10;;;;;;5027125;28;20199;-76
2022/10/07 01:33:26;;;;;;;1.93;1.20;;;10.60;80.80;;;;;;5009375;28;20679;-77
2022/10/07 01:35:55;;;;;;;1.70;1.70;;;10.60;80.40;;;;;;5043067;28;20188;-77
2022/10/07 01:38:25;;;;;;;1.23;1.23;;;10.60;81.20;;;;;;5042491;28;20435;-77
2022/10/07 01:41:08;;;;;;;1.63;1.53;;;10.60;81.50;;;;;;5041087;28;20581;-77
2022/10/07 01:43:36;;;;;;;1.70;1.60;;;10.60;80.80;;;;;;5043472;28;20262;-76
2022/10/07 01:46:05;;;;;;;1.90;1.80;;;10.50;81.60;;;;;;5040230;28;20212;-77
2022/10/07 01:48:31;;;;;;;1.67;1.57;;;10.50;81.80;;;;;;5034241;28;20193;-77
2022/10/07 01:50:59;;;;;;;1.48;1.38;;;10.50;81.40;;;;;;5054354;28;20198;-76
2022/10/07 01:53:43;;;;;;;1.60;1.50;;;10.50;82.20;;;;;;5053418;28;20187;-76
2022/10/07 01:56:12;;;;;;;3.17;1.98;;;10.50;82.70;;;;;;5050523;28;20266;-75
2022/10/07 01:58:37;;;;;;;1.77;1.67;;;10.40;81.50;;;;;;5053047;28;20214;-76
2022/10/07 02:01:05;;;;;;;1.67;1.63;;;10.40;82.10;;;;;;5055573;28;20180;-77
2022/10/07 02:03:43;;;;;;;1.50;1.35;;;10.40;82.10;;;;;;5063397;28;20711;-77
2022/10/07 02:06:26;;;;;;;1.60;1.50;;;10.40;81.90;;;;;;5062420;28;20174;-77
2022/10/07 02:08:55;;;;;;;1.67;1.57;;;10.40;82.40;;;;;;5050709;28;20230;-76
2022/10/07 02:11:26;;;;;;;1.80;1.70;;;10.40;82.80;;;;;;5047862;28;20180;-76
2022/10/07 02:14:06;;;;;;;1.23;1.23;;;10.30;82.70;;;;;;5045764;28;20255;-75
2022/10/07 02:16:55;;;;;;;1.40;1.40;;;10.30;82.40;;;;;;5049597;28;20274;-77
2022/10/07 02:19:31;;;;;;;1.27;1.17;;;10.20;81.90;;;;;;5049153;28;20691;-77
2022/10/07 02:21:59;;;;;;;3.80;1.60;;;10.20;82.10;;;;;;5055304;28;20266;-77
2022/10/07 02:24:29;;;;;;;1.63;1.53;;;10.20;82.20;;;;;;5059894;28;20225;-77
2022/10/07 02:26:57;;;;;;;1.67;1.57;;;10.20;82.00;;;;;;5058626;28;20175;-77
2022/10/07 02:29:26;;;;;;;2.97;2.43;;;10.20;82.20;;;;;;5062612;28;20250;-77
2022/10/07 02:31:54;;;;;;;2.23;2.13;;;10.20;82.40;;;;;;5057085;28;20234;-77
2022/10/07 02:34:23;;;;;;;2.07;1.83;;;10.10;82.40;;;;;;5055863;28;20290;-77
2022/10/07 02:36:58;;;;;;;2.43;2.23;;;10.10;82.50;;;;;;5058923;28;20183;-77
2022/10/07 02:39:23;;;;;;;1.75;1.65;;;10.10;82.40;;;;;;5062627;28;20253;-77
2022/10/07 02:42:24;;;;;;;2.10;2.00;;;10.10;83.30;;;;;;5054251;28;20183;-77
2022/10/07 02:45:17;;;;;;;2.80;2.13;;;10.10;82.60;;;;;;5045999;28;20207;-77
2022/10/07 02:48:03;;;;;;;1.88;1.77;;;10.10;82.40;;;;;;5032945;28;20211;-77
2022/10/07 02:50:36;;;;;;;2.50;2.30;;;10.10;82.50;;;;;;5049705;28;20188;-77
2022/10/07 02:53:03;;;;;;;3.13;2.17;;;10.10;83.00;;;;;;5046506;28;20187;-77
2022/10/07 02:55:30;;;;;;;3.57;2.53;;;10.10;83.20;;;;;;5045570;28;20187;-77
2022/10/07 02:58:00;;;;;;;1.87;1.73;;;10.00;83.10;;;;;;5045123;28;20265;-77
2022/10/07 03:00:30;;;;;;;2.38;2.17;;;10.00;83.60;;;;;;5052171;28;20211;-77
2022/10/07 03:03:01;;;;;;;3.60;2.57;;;10.00;84.00;;;;;;5033581;28;20196;-77
2022/10/07 03:05:27;;;;;;;2.80;2.60;;;10.00;85.70;;;;;;5050095;28;20192;-77
2022/10/07 03:08:00;;;;;;;3.00;2.40;;;10.00;84.80;;;;;;5052382;28;20195;-77
2022/10/07 03:10:26;;;;;;;2.13;1.93;;;9.90;86.30;;;;;;5048901;28;20701;-76
2022/10/07 03:12:52;;;;;;;2.30;1.87;;;9.80;85.20;;;;;;5048704;28;20294;-77
2022/10/07 03:15:18;;;;;;;1.50;1.50;;;9.80;85.70;;;;;;5033517;28;20685;-76
2022/10/07 03:17:44;;;;;;;2.33;1.67;;;9.80;86.20;;;;;;5043280;28;20190;-76
2022/10/07 03:20:11;;;;;;;1.60;1.60;;;9.70;85.50;;;;;;5054881;28;20203;-76
2022/10/07 03:22:36;;;;;;;1.60;1.50;;;9.70;85.40;;;;;;5063345;28;20221;-76
2022/10/07 03:25:02;;;;;;;1.77;1.67;;;9.70;85.40;;;;;;5057942;28;20187;-75
2022/10/07 03:27:28;;;;;;;3.57;1.87;;;9.70;85.20;;;;;;5066423;28;20176;-77
2022/10/07 03:29:54;;;;;;;1.73;1.73;;;9.70;85.90;;;;;;5068035;28;21339;-76
2022/10/07 03:32:20;;;;;;;2.23;2.03;;;9.70;85.90;;;;;;5057551;28;20179;-76
2022/10/07 03:34:45;;;;;;;1.87;1.77;;;9.70;87.40;;;;;;5058535;28;20193;-76
2022/10/07 03:37:11;;;;;;;2.80;1.87;;;9.60;87.30;;;;;;5055905;28;20669;-76
2022/10/07 03:39:37;;;;;;;1.47;1.47;;;9.60;86.80;;;;;;5052896;28;20211;-75
2022/10/07 03:42:03;;;;;;;1.20;1.10;;;9.60;86.70;;;;;;5054497;28;20186;-75
2022/10/07 03:44:29;;;;;;;1.80;1.70;;;9.50;86.20;;;;;;5051867;28;20198;-76
2022/10/07 03:46:54;;;;;;;1.67;1.57;;;9.50;87.20;;;;;;5058833;28;20196;-76
2022/10/07 03:49:20;;;;;;;4.27;1.80;;;9.50;87.00;;;;;;5059631;28;20187;-76
2022/10/07 03:51:46;;;;;;;2.17;2.07;;;9.50;86.70;;;;;;5056720;28;20193;-76
2022/10/07 03:54:12;;;;;;;2.43;1.37;;;9.50;86.60;;;;;;5050612;28;20184;-76
2022/10/07 03:56:37;;;;;;;1.67;1.57;;;9.50;86.50;;;;;;5052870;28;20763;-76
2022/10/07 03:59:03;;;;;;;1.67;1.60;;;9.50;86.60;;;;;;5052346;28;20673;-76
2022/10/07 04:01:30;;;;;;;1.83;1.73;;;9.40;85.80;;;;;;5053417;28;20179;-75
2022/10/07 04:03:58;;;;;;;2.63;1.53;;;9.50;87.70;;;;;;5052923;28;20194;-77
2022/10/07 04:06:24;;;;;;;4.47;2.10;;;9.50;86.60;;;;;;5055803;28;20207;-76
2022/10/07 04:08:54;;;;;;;3.97;1.93;;;9.40;86.00;;;;;;5048087;28;20660;-75
2022/10/07 04:11:20;;;;;;;2.30;2.20;;;9.40;85.90;;;;;;5051383;28;20228;-76
2022/10/07 04:13:47;;;;;;;2.00;1.90;;;9.40;87.90;;;;;;5055156;28;20197;-76
2022/10/07 04:16:13;;;;;;;1.77;1.67;;;9.40;88.10;;;;;;5056051;28;20183;-76
2022/10/07 04:18:40;;;;;;;4.00;1.50;;;9.40;87.30;;;;;;5056680;28;20724;-77
2022/10/07 04:21:07;;;;;;;1.80;1.70;;;9.40;88.50;;;;;;5045970;28;20296;-75
2022/10/07 04:23:33;;;;;;;1.50;1.40;;;9.40;87.50;;;;;;5050495;28;20190;-74
2022/10/07 04:25:59;;;;;;;1.53;1.50;;;9.40;88.80;;;;;;5044968;28;20191;-76
2022/10/07 04:28:25;;;;;;;3.03;1.83;;;9.40;87.70;;;;;;5050858;28;20337;-77
2022/10/07 04:30:52;;;;;;;3.17;1.37;;;9.40;88.50;;;;;;5048345;28;20187;-75
2022/10/07 04:33:23;;;;;;;1.37;1.33;;;9.30;88.50;;;;;;5046551;28;20575;-75
2022/10/07 04:35:49;;;;;;;1.53;1.53;;;9.20;88.60;;;;;;5051667;28;20187;-75
2022/10/07 04:38:17;;;;;;;1.53;1.43;;;9.20;88.30;;;;;;5046584;28;21107;-75
2022/10/07 04:40:45;;;;;;;1.97;1.70;;;9.20;87.70;;;;;;5044110;28;20218;-74
2022/10/07 04:43:19;;;;;;;1.40;1.30;;;9.20;88.70;;;;;;5050440;28;20180;-75
2022/10/07 04:45:46;;;;;;;1.83;1.73;;;9.20;87.30;;;;;;5050880;28;20206;-75
2022/10/07 04:48:12;;;;;;;3.10;2.00;;;9.20;88.90;;;;;;5050928;28;20641;-73
2022/10/07 04:50:38;;;;;;;2.23;2.03;;;9.20;87.80;;;;;;5048208;28;20474;-73
2022/10/07 04:53:06;;;;;;;1.90;1.80;;;9.30;89.10;;;;;;5049758;28;20271;-73
2022/10/07 04:55:40;;;;;;;1.87;1.77;;;9.30;88.20;;;;;;5046507;28;20710;-74
2022/10/07 04:58:06;;;;;;;2.57;2.37;;;9.30;87.60;;;;;;5041078;28;20188;-73
2022/10/07 05:00:33;;;;;;;1.67;1.57;;;9.30;87.40;;;;;;5050943;28;20186;-73
2022/10/07 05:02:59;;;;;;;2.43;1.53;;;9.30;87.10;;;;;;5052611;28;21020;-74
2022/10/07 05:05:26;;;;;;;1.93;1.83;;;9.30;86.90;;;;;;5050795;28;20254;-74
2022/10/07 05:07:53;;;;;;;1.80;1.70;;;9.40;88.40;;;;;;5053402;28;20665;-74
2022/10/07 05:10:19;;;;;;;1.90;1.80;;;9.40;87.40;;;;;;5055462;28;20207;-74
2022/10/07 05:12:45;;;;;;;4.77;2.60;;;9.40;87.70;;;;;;5050361;28;20767;-74
2022/10/07 05:15:11;;;;;;;2.80;2.60;;;9.50;87.50;;;;;;5054023;28;20179;-75
2022/10/07 05:17:39;;;;;;;6.77;2.50;;;9.50;87.20;;;;;;5053601;28;20183;-75
2022/10/07 05:20:06;;;;;;;6.03;2.77;;;9.50;87.20;;;;;;5055680;28;20248;-73
2022/10/07 05:22:32;;;;;;;2.80;2.70;;;9.50;87.10;;;;;;5052051;28;20211;-74
2022/10/07 05:24:58;;;;;;;2.80;2.60;;;9.60;87.50;;;;;;5052346;28;20188;-74
2022/10/07 05:27:24;;;;;;;2.47;2.20;;;9.70;87.20;;;;;;5058190;28;20171;-74
2022/10/07 05:29:49;;;;;;;2.83;2.33;;;9.70;87.80;;;;;;5057966;28;20189;-74
2022/10/07 05:32:16;;;;;;;2.40;2.30;;;9.80;87.70;;;;;;5051076;28;20186;-74
2022/10/07 05:34:43;;;;;;;3.90;2.53;;;9.80;88.10;;;;;;5056914;28;20175;-74
2022/10/07 05:37:10;;;;;;;2.00;1.87;;;9.90;88.80;;;;;;5055022;28;20199;-74
2022/10/07 05:39:36;;;;;;;2.00;1.90;;;9.90;88.10;;;;;;5048827;28;20248;-74
2022/10/07 05:42:01;;;;;;;2.03;1.93;;;10.00;88.40;;;;;;5050509;28;20176;-74
2022/10/07 05:44:30;;;;;;;2.47;2.30;;;10.00;88.30;;;;;;5055178;28;20240;-74
2022/10/07 05:46:56;;;;;;;3.70;2.67;;;10.00;88.20;;;;;;5050809;28;20218;-74
2022/10/07 05:49:22;;;;;;;2.50;2.33;;;10.00;89.20;;;;;;5053280;28;20211;-75
2022/10/07 05:51:48;;;;;;;3.97;2.07;;;10.10;89.00;;;;;;5057840;28;20191;-74
2022/10/07 05:54:14;;;;;;;4.47;2.70;;;10.10;88.20;;;;;;5056605;28;20193;-74
2022/10/07 05:56:39;;;;;;;3.57;3.27;;;10.20;89.40;;;;;;5051670;28;20645;-73
2022/10/07 05:59:06;;;;;;;3.33;3.03;;;10.30;89.20;;;;;;5052698;28;20236;-74
2022/10/07 06:01:31;;;;;;;2.47;2.37;;;10.30;89.00;;;;;;5052321;28;20248;-73
2022/10/07 06:03:57;;;;;;;2.40;2.30;;;10.40;88.70;;;;;;5052486;28;20179;-74
2022/10/07 06:06:24;;;;;;;2.37;2.17;;;10.40;88.00;;;;;;5049269;28;20179;-73
2022/10/07 06:08:51;;;;;;;3.20;2.03;;;10.40;88.40;;;;;;5048172;28;20190;-74
2022/10/07 06:14:03;;;;;;;4.83;2.87;;;10.50;87.90;;;;;;5050880;28;20218;-74
2022/10/07 06:16:28;;;;;;;2.30;2.20;;;10.60;87.80;;;;;;5051444;28;20203;-74
2022/10/07 06:18:55;;;;;;;2.93;2.73;;;10.70;87.40;;;;;;5051641;28;20289;-74
2022/10/07 06:21:25;;;;;;;2.40;2.30;;;10.80;87.40;;;;;;5056237;28;20241;-74
2022/10/07 06:23:51;;;;;;;2.20;2.00;;;10.80;87.20;;;;;;5051770;28;20187;-74
2022/10/07 06:26:17;;;;;;;3.17;2.20;;;10.90;87.20;;;;;;5051672;28;20179;-74
2022/10/07 06:28:43;;;;;;;2.77;2.57;;;11.00;87.20;;;;;;5047811;28;20237;-73
2022/10/07 06:31:13;;;;;;;4.00;3.22;;;11.10;87.10;;;;;;5050756;28;20221;-73
2022/10/07 06:33:39;;;;;;;3.00;2.80;;;11.20;87.00;;;;;;5045784;28;20654;-73
2022/10/07 06:36:12;;;;;;;4.63;2.85;;;11.20;87.10;;;;;;5055541;28;20580;-74
2022/10/07 06:38:44;;;;;;;5.75;2.55;;;11.30;87.10;;;;;;5052628;28;20245;-75
2022/10/07 06:41:10;;;;;;;3.03;2.83;;;11.40;86.60;;;;;;5053224;28;20179;-74
2022/10/07 06:43:35;;;;;;;3.45;2.70;;;11.50;86.70;;;;;;5049885;28;20190;-74
2022/10/07 06:46:03;;;;;;;2.88;2.65;;;11.50;87.00;;;;;;5047286;28;20286;-74
2022/10/07 06:48:31;;;;;;;2.90;2.67;;;11.60;86.60;;;;;;5050092;28;20652;-74
2022/10/07 06:50:58;;;;;;;3.60;3.30;;;11.70;86.60;;;;;;5055011;28;20258;-75
2022/10/07 06:53:25;;;;;;;4.28;3.55;;;11.80;86.40;;;;;;5048816;28;20203;-74
2022/10/07 06:55:58;;;;;;;4.22;3.53;;;11.90;86.60;;;;;;5056445;28;20183;-74
2022/10/07 06:58:24;;;;;;;4.60;3.08;;;12.00;86.20;;;;;;5056597;28;20596;-74
2022/10/07 07:00:54;;;;;;;4.18;3.80;;;12.10;86.00;;;;;;5059368;28;20229;-74
2022/10/07 07:03:20;;;;;;;3.15;2.90;;;12.20;86.00;;;;;;5051209;28;20183;-75
2022/10/07 07:05:46;;;;;;;3.42;3.13;;;12.30;86.00;;;;;;5057497;28;20183;-74
2022/10/07 07:08:14;;;;;;;4.82;3.55;;;12.40;85.60;;;;;;5060487;28;20236;-75
2022/10/07 07:10:41;;;;;;;6.50;4.28;;;12.50;85.50;;;;;;5049712;28;20221;-75
2022/10/07 07:13:07;;;;;;;9.65;4.45;;;12.60;85.20;;;;;;5059574;28;20178;-75
2022/10/07 07:15:34;;;;;;;4.78;3.70;;;12.70;85.50;;;;;;5050540;28;20269;-73
2022/10/07 07:18:01;;;;;;;4.18;3.88;;;12.90;85.00;;;;;;5056425;28;20690;-75
2022/10/07 07:20:34;;;;;;;4.38;3.78;;;13.00;84.70;;;;;;5052652;28;20216;-75
2022/10/07 07:23:09;;;;;;;4.55;3.75;;;13.10;84.50;;;;;;5052699;28;20183;-75
2022/10/07 07:25:37;;;;;;;4.10;3.78;;;13.30;83.50;;;;;;5053081;28;20277;-74
2022/10/07 07:28:03;;;;;;;4.40;3.97;;;13.50;84.10;;;;;;5052812;28;20191;-74
2022/10/07 07:30:30;;;;;;;5.72;4.72;;;13.60;85.00;;;;;;5055294;28;20194;-75
2022/10/07 07:32:56;;;;;;;8.85;4.93;;;13.80;84.70;;;;;;5054679;28;20201;-75
2022/10/07 07:35:23;;;;;;;9.02;5.38;;;14.10;84.30;;;;;;5056496;28;20182;-75
2022/10/07 07:37:49;;;;;;;8.75;5.20;;;14.50;83.40;;;;;;5051320;28;20186;-75
2022/10/07 07:40:17;;;;;;;6.97;5.53;;;15.20;80.90;;;;;;5052366;28;20219;-75
2022/10/07 07:42:45;;;;;;;8.27;4.53;;;15.80;79.90;;;;;;5055747;28;20199;-75
2022/10/07 07:45:11;;;;;;;5.47;4.95;;;16.60;79.20;;;;;;5053079;28;20313;-73
2022/10/07 07:47:36;;;;;;;5.07;4.45;;;17.40;78.90;;;;;;5057472;28;20537;-74
2022/10/07 07:50:04;;;;;;;5.28;4.78;;;18.30;77.90;;;;;;5056041;28;20187;-74
2022/10/07 07:52:31;;;;;;;4.43;3.97;;;19.20;74.60;;;;;;5050818;28;20946;-74
2022/10/07 07:54:57;;;;;;;6.85;3.88;;;20.10;73.20;;;;;;5054932;28;20182;-74
2022/10/07 07:57:25;;;;;;;8.38;4.53;;;21.00;71.80;;;;;;5049041;28;20659;-75
2022/10/07 07:59:51;;;;;;;6.50;3.50;;;21.80;69.30;;;;;;5054143;28;20261;-75
2022/10/07 08:02:19;;;;;;;4.80;4.30;;;22.70;67.90;;;;;;5053315;28;20180;-74
2022/10/07 08:04:44;;;;;;;7.28;3.92;;;23.50;65.60;;;;;;5056769;28;21081;-75
2022/10/07 08:07:11;;;;;;;3.63;3.33;;;24.20;64.10;;;;;;5051429;28;20179;-74
2022/10/07 08:09:40;;;;;;;3.33;3.13;;;24.80;61.60;;;;;;5051687;28;20737;-74
2022/10/07 08:12:06;;;;;;;4.70;3.13;;;25.30;62.00;;;;;;5057882;28;20198;-74
2022/10/07 08:14:32;;;;;;;2.92;2.83;;;26.00;60.70;;;;;;5054263;28;20194;-74
2022/10/07 08:16:58;;;;;;;4.22;3.05;;;26.50;59.90;;;;;;5056037;28;20240;-75
2022/10/07 08:19:28;;;;;;;2.70;2.55;;;27.10;58.90;;;;;;5055652;28;20203;-75
2022/10/07 08:21:55;;;;;;;3.60;2.90;;;27.70;57.60;;;;;;5051817;28;20176;-74
2022/10/07 08:24:23;;;;;;;3.85;3.28;;;28.30;57.50;;;;;;5051065;28;21722;-73
2022/10/07 08:26:49;;;;;;;3.53;3.22;;;28.90;55.70;;;;;;5055407;28;20542;-74
2022/10/07 08:29:16;;;;;;;3.42;2.95;;;29.50;54.50;;;;;;5052762;28;20187;-74
2022/10/07 08:31:42;;;;;;;3.50;3.20;;;30.00;53.80;;;;;;5053762;28;20184;-74
2022/10/07 08:34:09;;;;;;;2.33;2.22;;;30.50;52.70;;;;;;5059055;28;20186;-74
2022/10/07 08:36:34;;;;;;;2.70;2.60;;;30.70;49.30;;;;;;5056374;28;20179;-74
2022/10/07 08:39:01;;;;;;;2.75;1.67;;;30.70;52.30;;;;;;5057587;28;20230;-74
2022/10/07 08:41:33;;;;;;;1.58;1.58;;;30.60;50.80;;;;;;5054673;28;20289;-74
2022/10/07 08:44:16;;;;;;;1.70;1.52;;;30.70;51.50;;;;;;5052689;28;20227;-73
2022/10/07 08:46:57;;;;;;;1.45;1.45;;;30.80;51.10;;;;;;5049035;28;20184;-74
2022/10/07 08:49:43;;;;;;;1.95;1.63;;;31.10;50.50;;;;;;5051820;28;20576;-73
2022/10/07 08:52:28;;;;;;;1.40;1.30;;;31.40;48.60;;;;;;5012598;28;20239;-74
2022/10/07 08:54:53;;;;;;;1.45;1.35;;;31.50;47.00;;;;;;5013821;28;20193;-73
2022/10/07 08:57:51;;;;;;;1.73;1.20;;;31.50;48.70;;;;;;5011578;28;20204;-74
2022/10/07 09:00:20;;;;;;;1.48;1.48;;;31.80;48.70;;;;;;4963431;28;20675;-74
2022/10/07 09:03:19;;;;;;;1.27;1.27;;;32.10;46.10;;;;;;4963072;28;20214;-74
2022/10/07 09:05:48;;;;;;;1.60;1.45;;;32.50;48.20;;;;;;4963765;28;20203;-74
2022/10/07 09:08:21;;;;;;;1.60;1.48;;;33.10;47.10;;;;;;4963477;28;20190;-74
2022/10/07 09:10:49;;;;;;;1.15;1.13;;;33.60;47.70;;;;;;4963854;28;20202;-74
2022/10/07 09:13:18;;;;;;;1.73;1.17;;;34.20;46.10;;;;;;4963439;28;20190;-74
2022/10/07 09:15:48;;;;;;;1.10;1.10;;;34.70;45.70;;;;;;4963198;28;20202;-74
2022/10/07 09:18:39;;;;;;;1.00;1.00;;;35.00;46.70;;;;;;4962267;28;20194;-74
2022/10/07 09:21:11;;;;;;;1.95;1.23;;;35.30;45.40;;;;;;4962691;28;20470;-74
2022/10/07 09:23:37;;;;;;;2.50;1.73;;;35.70;45.00;;;;;;4964636;28;20210;-74
2022/10/07 09:26:15;;;;;;;1.10;1.10;;;36.20;45.10;;;;;;4962825;28;20256;-75
2022/10/07 09:28:41;;;;;;;3.15;1.20;;;36.60;45.60;;;;;;4967324;28;20196;-74
2022/10/07 09:31:12;;;;;;;1.58;1.00;;;36.80;43.00;;;;;;4983174;28;20223;-74
2022/10/07 09:33:43;;;;;;;1.05;1.00;;;36.90;45.30;;;;;;4982268;28;20193;-74
2022/10/07 09:36:12;;;;;;;0.77;0.77;;;37.00;44.80;;;;;;4984954;28;20189;-74
2022/10/07 09:38:40;;;;;;;1.52;1.20;;;36.80;45.40;;;;;;5050685;28;20217;-74
2022/10/07 09:41:14;;;;;;;0.80;0.80;;;37.00;44.10;;;;;;5050858;28;20187;-74
2022/10/07 09:43:52;;;;;;;1.00;1.00;;;37.30;45.10;;;;;;5052952;28;20187;-73
2022/10/07 09:46:41;;;;;;;0.90;0.90;;;37.50;43.80;;;;;;5054034;28;20186;-75
2022/10/07 09:49:25;;;;;;;1.00;1.00;;;37.70;42.20;;;;;;5055745;28;20178;-74
2022/10/07 09:52:22;;;;;;;1.05;1.05;;;37.80;42.90;;;;;;5051294;28;20198;-74
2022/10/07 09:54:50;;;;;;;0.90;0.90;;;38.00;40.60;;;;;;5054035;28;20206;-74
2022/10/07 09:57:35;;;;;;;0.85;0.85;;;37.90;42.00;;;;;;5052347;28;20706;-74
2022/10/07 10:00:28;;;;;;;0.77;0.77;;;37.90;42.60;;;;;;5053566;28;20217;-74
2022/10/07 10:03:02;;;;;;;0.88;0.80;;;38.00;41.30;;;;;;5053054;28;20190;-74
2022/10/07 10:05:31;;;;;;;1.15;1.02;;;38.10;42.60;;;;;;5050964;28;20183;-74
2022/10/07 10:08:00;;;;;;;0.88;0.88;;;38.30;44.20;;;;;;5053650;28;20200;-74
2022/10/07 10:10:35;;;;;;;1.33;1.00;;;38.50;41.60;;;;;;5060099;28;20182;-74
2022/10/07 10:13:04;;;;;;;0.90;0.90;;;38.60;42.90;;;;;;5055601;28;20567;-74
2022/10/07 10:15:40;;;;;;;2.10;0.93;;;38.60;42.60;;;;;;5049523;28;20283;-73
2022/10/07 10:18:27;;;;;;;0.73;0.73;;;38.60;42.90;;;;;;5050047;28;20966;-74
2022/10/07 10:20:53;;;;;;;0.80;0.65;;;38.50;40.50;;;;;;5048621;28;20206;-75
2022/10/07 10:23:36;;;;;;;1.83;0.90;;;38.50;42.40;;;;;;5052007;28;20186;-75
2022/10/07 10:26:26;;;;;;;1.05;0.80;;;38.60;42.50;;;;;;5050627;28;20553;-75
2022/10/07 10:28:52;;;;;;;1.38;1.17;;;38.70;42.00;;;;;;5057041;28;20175;-75
2022/10/07 10:31:42;;;;;;;2.40;0.80;;;38.70;40.90;;;;;;5052224;28;20201;-75
2022/10/07 10:34:37;;;;;;;0.98;0.98;;;38.80;41.70;;;;;;5055421;28;20445;-75
2022/10/07 10:37:22;;;;;;;0.82;0.82;;;38.90;40.80;;;;;;5052983;28;20188;-74
2022/10/07 10:40:21;;;;;;;0.82;0.80;;;38.90;40.10;;;;;;5056983;28;20190;-75
2022/10/07 10:43:05;;;;;;;0.80;0.80;;;38.80;38.90;;;;;;5055706;28;20224;-74
2022/10/07 10:45:46;;;;;;;0.65;0.65;;;38.40;39.00;;;;;;5053285;28;20194;-75
2022/10/07 10:48:15;;;;;;;2.47;0.95;;;37.70;39.70;;;;;;5059058;28;20915;-75
2022/10/07 10:51:04;;;;;;;0.93;0.93;;;37.20;40.10;;;;;;5056301;28;20277;-75
2022/10/07 10:54:08;;;;;;;0.80;0.80;;;36.80;40.10;;;;;;5052306;28;20669;-75
2022/10/07 10:56:52;;;;;;;0.63;0.63;;;36.60;39.90;;;;;;5055986;28;20263;-75
2022/10/07 10:59:36;;;;;;;2.75;0.93;;;36.30;40.00;;;;;;5055343;28;20210;-75
2022/10/07 11:02:23;;;;;;;2.88;0.75;;;36.30;42.60;;;;;;5048888;28;20193;-74
2022/10/07 11:04:57;;;;;;;0.63;0.63;;;36.20;40.90;;;;;;5057028;28;20187;-74
2022/10/07 11:07:30;;;;;;;0.75;0.75;;;36.00;39.80;;;;;;5051671;28;20202;-75
2022/10/07 11:10:01;;;;;;;1.58;0.80;;;35.80;41.80;;;;;;5056216;28;20205;-75
2022/10/07 11:12:36;;;;;;;0.93;0.93;;;35.60;41.00;;;;;;5059704;28;20245;-75
2022/10/07 11:15:26;;;;;;;0.88;0.88;;;35.60;43.30;;;;;;5052097;28;20174;-75
2022/10/07 11:17:57;;;;;;;1.17;0.80;;;35.60;40.20;;;;;;5049937;28;20190;-75
2022/10/07 11:20:34;;;;;;;0.85;0.85;;;35.70;41.20;;;;;;5055469;28;20692;-75
2022/10/07 11:23:08;;;;;;;0.60;0.60;;;36.00;43.10;;;;;;5055804;28;20645;-75
2022/10/07 11:25:43;;;;;;;2.17;0.77;;;36.20;42.40;;;;;;5051811;28;20194;-76
2022/10/07 11:28:26;;;;;;;0.50;0.50;;;36.50;40.10;;;;;;5081591;28;20629;-74
2022/10/07 11:31:04;;;;;;;0.82;0.70;;;36.70;40.70;;;;;;5054238;28;20186;-74
2022/10/07 11:33:45;;;;;;;0.80;0.80;;;36.90;39.40;;;;;;5047126;28;20183;-74
2022/10/07 11:36:23;;;;;;;0.75;0.60;;;37.10;38.90;;;;;;5046209;28;20267;-74
2022/10/07 11:38:51;;;;;;;0.98;0.70;;;37.30;38.70;;;;;;5049317;28;20373;-73
2022/10/07 11:41:23;;;;;;;0.50;0.50;;;37.50;39.30;;;;;;5046857;28;20186;-74
2022/10/07 11:43:55;;;;;;;0.60;0.60;;;37.70;39.60;;;;;;5051917;28;20190;-73
2022/10/07 11:46:41;;;;;;;0.57;0.57;;;37.80;39.60;;;;;;5053159;28;20175;-74
2022/10/07 11:49:18;;;;;;;0.60;0.60;;;37.80;38.40;;;;;;5050912;28;20207;-74
2022/10/07 11:51:52;;;;;;;2.20;0.70;;;37.90;38.20;;;;;;5050931;28;20284;-74
2022/10/07 11:54:21;;;;;;;0.70;0.70;;;37.90;38.30;;;;;;5051104;28;20174;-73
2022/10/07 11:56:50;;;;;;;2.75;0.70;;;37.90;40.20;;;;;;5056244;28;20254;-72
2022/10/07 11:59:41;;;;;;;1.75;0.68;;;37.90;41.00;;;;;;5046788;28;20298;-73
2022/10/07 12:02:28;;;;;;;0.73;0.57;;;37.90;38.10;;;;;;5047042;28;20273;-72
2022/10/07 12:04:58;;;;;;;0.60;0.60;;;37.90;37.80;;;;;;5054301;28;20171;-72
2022/10/07 12:07:35;;;;;;;0.60;0.60;;;37.80;39.00;;;;;;5050790;28;20179;-72
2022/10/07 12:10:02;;;;;;;0.57;0.57;;;37.50;39.10;;;;;;5051376;28;20189;-73
2022/10/07 12:12:43;;;;;;;0.70;0.50;;;37.20;40.00;;;;;;5051082;28;20177;-72
2022/10/07 12:15:33;;;;;;;1.02;0.70;;;37.10;38.80;;;;;;5055772;28;20262;-73
2022/10/07 12:18:04;;;;;;;0.60;0.60;;;37.10;38.10;;;;;;5052224;28;20183;-73
2022/10/07 12:20:33;;;;;;;0.50;0.50;;;37.00;40.10;;;;;;5054660;28;20213;-73
2022/10/07 12:23:27;;;;;;;0.80;0.55;;;36.90;38.70;;;;;;5048923;28;20194;-72
2022/10/07 12:25:58;;;;;;;1.23;0.40;;;36.80;37.90;;;;;;5052372;28;20186;-73
2022/10/07 12:28:40;;;;;;;0.77;0.60;;;36.50;40.60;;;;;;5055002;28;20180;-73
2022/10/07 12:31:06;;;;;;;4.45;0.70;;;36.40;38.30;;;;;;5053320;28;20172;-74
2022/10/07 12:33:58;;;;;;;0.70;0.70;;;36.30;38.30;;;;;;5051864;28;20179;-74
2022/10/07 12:36:26;;;;;;;0.70;0.70;;;36.10;38.40;;;;;;4999200;28;20681;-74
2022/10/07 12:38:55;;;;;;;0.68;0.52;;;36.00;39.30;;;;;;4997083;28;20276;-73
2022/10/07 12:41:37;;;;;;;0.57;0.57;;;35.90;39.50;;;;;;5011992;28;20188;-73
2022/10/07 12:44:21;;;;;;;1.65;0.60;;;35.70;40.50;;;;;;5016560;28;20674;-73
2022/10/07 12:47:07;;;;;;;1.75;0.73;;;35.70;39.10;;;;;;5013302;28;20291;-73
2022/10/07 12:49:45;;;;;;;0.57;0.57;;;35.50;38.80;;;;;;5013450;28;20265;-73
2022/10/07 12:52:31;;;;;;;0.55;0.55;;;35.40;40.00;;;;;;5029493;28;20727;-74
2022/10/07 12:55:00;;;;;;;0.40;0.40;;;35.50;40.60;;;;;;4971222;28;20212;-74
2022/10/07 12:57:35;;;;;;;0.40;0.40;;;35.20;40.60;;;;;;4980069;28;20193;-73
2022/10/07 13:00:00;;;;;;;0.65;0.50;;;34.70;39.80;;;;;;4976107;28;20275;-73
2022/10/07 13:02:35;;;;;;;0.50;0.50;;;34.10;40.10;;;;;;4976202;28;20189;-73
2022/10/07 13:05:37;;;;;;;0.77;0.60;;;33.90;40.70;;;;;;4979768;28;20366;-73
2022/10/07 13:08:30;;;;;;;0.60;0.60;;;33.70;40.20;;;;;;4973336;28;20184;-73
2022/10/07 13:11:11;;;;;;;3.40;0.50;;;33.70;40.10;;;;;;4978772;28;20256;-73
2022/10/07 13:13:51;;;;;;;1.65;0.50;;;33.90;39.80;;;;;;4978776;28;20193;-74